Time;durP1;ratioP1;P1;durP2;ratioP2;P2;SDS_P1;SDS_P2;PMS_P1;PMS_P2;Temp;Humidity;BMP_temperature;BMP_pressure;BME280_temperature;BME280_humidity;BME280_pressure;Samples;Min_cycle;Max_cycle;Signal;HPM_P1;HPM_P2
2023/02/10 00:01:26;;;;;;;84.70;43.67;;;3.30;93.20;;;;;;5014675;28;20359;-92
2023/02/10 00:03:52;;;;;;;73.40;41.00;;;3.20;93.10;;;;;;5014476;28;20663;-91
2023/02/10 00:06:19;;;;;;;78.17;42.00;;;3.20;93.20;;;;;;5014567;28;20643;-93
2023/02/10 00:08:49;;;;;;;81.47;41.37;;;3.30;93.20;;;;;;5014216;28;20539;-91
2023/02/10 00:11:15;;;;;;;73.70;41.33;;;3.30;93.20;;;;;;5015106;28;20708;-91
2023/02/10 00:13:41;;;;;;;77.47;43.67;;;3.30;93.20;;;;;;5014627;28;20216;-90
2023/02/10 00:16:11;;;;;;;76.53;44.23;;;3.30;93.20;;;;;;5014961;28;20650;-93
2023/02/10 00:18:36;;;;;;;81.40;49.87;;;3.20;93.20;;;;;;5014620;28;20185;-91
2023/02/10 00:21:06;;;;;;;82.00;42.27;;;3.20;93.20;;;;;;5013837;28;20263;-91
2023/02/10 00:23:31;;;;;;;72.67;43.90;;;3.20;93.20;;;;;;5014039;28;20615;-90
2023/02/10 00:25:57;;;;;;;90.40;45.93;;;3.30;93.20;;;;;;5013728;28;20224;-91
2023/02/10 00:28:22;;;;;;;80.27;41.83;;;3.20;93.20;;;;;;5013848;28;20180;-92
2023/02/10 00:30:48;;;;;;;71.63;41.27;;;3.20;93.20;;;;;;5013909;28;20201;-91
2023/02/10 00:33:13;;;;;;;84.30;45.10;;;3.20;93.20;;;;;;5013801;28;20181;-90
2023/02/10 00:35:39;;;;;;;77.40;42.77;;;3.20;93.20;;;;;;5014238;28;20296;-91
2023/02/10 00:38:04;;;;;;;83.23;44.47;;;3.20;93.20;;;;;;5013908;28;20738;-92
2023/02/10 00:40:30;;;;;;;86.53;46.20;;;3.20;93.20;;;;;;5013687;28;20197;-91
2023/02/10 00:42:55;;;;;;;76.87;43.93;;;3.20;93.20;;;;;;5013744;28;20643;-91
2023/02/10 00:45:21;;;;;;;87.40;43.80;;;3.20;93.20;;;;;;5013686;28;20524;-92
2023/02/10 00:47:49;;;;;;;93.60;43.97;;;3.20;93.20;;;;;;5015424;28;20180;-89
2023/02/10 00:50:14;;;;;;;77.13;42.17;;;3.20;93.20;;;;;;5013718;28;20177;-93
2023/02/10 00:52:40;;;;;;;76.10;43.40;;;3.20;93.20;;;;;;5013350;28;20211;-91
2023/02/10 00:55:05;;;;;;;89.57;44.40;;;3.20;93.20;;;;;;5013534;28;20268;-92
2023/02/10 00:57:31;;;;;;;71.13;41.17;;;3.10;93.20;;;;;;5013605;28;20190;-92
2023/02/10 00:59:56;;;;;;;73.10;43.83;;;3.10;93.20;;;;;;5013128;28;20181;-91
2023/02/10 01:02:22;;;;;;;73.83;38.90;;;3.10;93.30;;;;;;5013337;28;20197;-92
2023/02/10 01:04:47;;;;;;;87.00;43.23;;;3.20;93.30;;;;;;5013168;28;20191;-93
2023/02/10 01:07:13;;;;;;;82.07;40.33;;;3.20;93.20;;;;;;5013021;28;20224;-91
2023/02/10 01:09:39;;;;;;;82.93;40.67;;;3.20;93.30;;;;;;5013328;28;20205;-92
2023/02/10 01:12:06;;;;;;;79.70;41.80;;;3.30;93.30;;;;;;5013104;28;20197;-92
2023/02/10 01:14:32;;;;;;;73.07;37.67;;;3.30;93.20;;;;;;5013151;28;20184;-92
2023/02/10 01:16:58;;;;;;;70.97;36.70;;;3.30;93.20;;;;;;5013047;28;20238;-92
2023/02/10 01:19:23;;;;;;;74.87;37.10;;;3.30;93.10;;;;;;5013052;28;20272;-91
2023/02/10 01:21:49;;;;;;;62.67;36.53;;;3.40;93.10;;;;;;5013981;28;20216;-92
2023/02/10 01:24:14;;;;;;;53.77;33.10;;;3.40;93.00;;;;;;5014134;28;20184;-92
2023/02/10 01:26:40;;;;;;;56.33;34.80;;;3.40;93.00;;;;;;5013996;28;20251;-92
2023/02/10 01:29:05;;;;;;;44.67;29.57;;;3.40;92.90;;;;;;5011930;28;20184;-92
2023/02/10 01:31:31;;;;;;;74.57;35.90;;;3.40;92.90;;;;;;5012896;28;20201;-92
2023/02/10 01:33:57;;;;;;;62.57;34.70;;;3.40;92.80;;;;;;5013294;28;20173;-93
2023/02/10 01:36:24;;;;;;;70.23;35.13;;;3.50;92.90;;;;;;5013942;28;20635;-92
2023/02/10 01:38:51;;;;;;;68.33;35.93;;;3.50;92.80;;;;;;5014101;28;20182;-91
2023/02/10 01:41:19;;;;;;;69.57;34.03;;;3.50;92.80;;;;;;5012837;28;20628;-92
2023/02/10 01:43:58;;;;;;;56.40;33.77;;;3.40;92.70;;;;;;5014523;28;20662;-90
2023/02/10 01:46:24;;;;;;;74.33;36.20;;;3.50;92.70;;;;;;5013051;28;20639;-90
2023/02/10 01:48:50;;;;;;;66.53;34.70;;;3.50;92.60;;;;;;5014375;28;20231;-89
2023/02/10 01:51:18;;;;;;;62.00;34.37;;;3.60;92.60;;;;;;5013047;28;20209;-91
2023/02/10 01:53:44;;;;;;;57.50;33.10;;;3.60;92.50;;;;;;5014565;28;20177;-89
2023/02/10 01:56:12;;;;;;;57.13;30.17;;;3.50;92.40;;;;;;5013466;28;20755;-90
2023/02/10 01:58:41;;;;;;;73.30;35.10;;;3.40;92.40;;;;;;5012574;28;20181;-91
2023/02/10 02:01:06;;;;;;;70.07;36.53;;;3.50;92.50;;;;;;5012603;28;20213;-91
2023/02/10 02:03:33;;;;;;;59.43;35.67;;;3.40;92.60;;;;;;5012977;28;20173;-90
2023/02/10 02:05:58;;;;;;;65.77;35.90;;;3.50;92.70;;;;;;5012763;28;20525;-90
2023/02/10 02:08:27;;;;;;;61.63;32.67;;;3.50;92.70;;;;;;5012557;28;20178;-90
2023/02/10 02:11:07;;;;;;;60.20;34.53;;;3.50;92.70;;;;;;5012360;28;20201;-90
2023/02/10 02:14:08;;;;;;;60.17;34.53;;;3.50;92.60;;;;;;5012348;28;20173;-90
2023/02/10 02:16:49;;;;;;;58.90;32.20;;;3.40;92.60;;;;;;5013299;28;20180;-91
2023/02/10 02:19:46;;;;;;;57.90;31.70;;;3.50;92.60;;;;;;5013887;28;20177;-91
2023/02/10 02:22:40;;;;;;;58.43;32.37;;;3.50;92.60;;;;;;5012456;28;20213;-90
2023/02/10 02:25:48;;;;;;;67.67;36.07;;;3.40;92.50;;;;;;5012587;28;20196;-90
2023/02/10 02:28:28;;;;;;;60.70;35.60;;;3.30;92.50;;;;;;4967483;28;20192;-90
2023/02/10 02:31:02;;;;;;;54.30;33.47;;;3.30;92.60;;;;;;5013985;28;20247;-91
2023/02/10 02:33:40;;;;;;;82.50;38.23;;;3.30;92.70;;;;;;5013027;28;20181;-91
2023/02/10 02:36:16;;;;;;;73.40;38.13;;;3.30;92.80;;;;;;5012552;28;20209;-91
2023/02/10 02:38:42;;;;;;;54.17;36.70;;;3.30;92.80;;;;;;5012747;28;20177;-91
2023/02/10 02:41:09;;;;;;;63.13;35.97;;;3.30;92.90;;;;;;5017583;28;20209;-90
2023/02/10 02:43:36;;;;;;;65.07;37.93;;;3.20;92.90;;;;;;5015987;28;20271;-90
2023/02/10 02:46:23;;;;;;;72.07;36.83;;;3.20;92.90;;;;;;5016002;28;20320;-91
2023/02/10 02:49:30;;;;;;;69.50;39.37;;;3.10;92.90;;;;;;5015882;28;20170;-91
2023/02/10 02:52:07;;;;;;;65.13;37.53;;;3.00;92.90;;;;;;4994794;28;20212;-91
2023/02/10 02:55:06;;;;;;;65.27;36.87;;;3.00;93.00;;;;;;5016004;28;20260;-91
2023/02/10 02:57:34;;;;;;;73.70;39.40;;;3.00;93.00;;;;;;5015733;28;20184;-92
2023/02/10 03:00:08;;;;;;;74.30;38.30;;;3.00;93.10;;;;;;5015749;28;20177;-90
2023/02/10 03:02:35;;;;;;;70.67;37.87;;;3.00;93.10;;;;;;5015742;28;20295;-91
2023/02/10 03:05:02;;;;;;;57.30;37.57;;;3.00;93.10;;;;;;5017238;28;20644;-93
2023/02/10 03:07:27;;;;;;;65.30;39.07;;;2.90;93.20;;;;;;5016495;28;20178;-92
2023/02/10 03:09:53;;;;;;;62.57;37.43;;;3.00;93.20;;;;;;5015171;28;20185;-92
2023/02/10 03:12:18;;;;;;;66.33;40.03;;;2.90;93.30;;;;;;5016110;28;20568;-92
2023/02/10 03:14:44;;;;;;;57.73;38.27;;;3.00;93.30;;;;;;5014865;28;20209;-92
2023/02/10 03:17:09;;;;;;;67.73;40.53;;;3.00;93.30;;;;;;5014759;28;20213;-92
2023/02/10 03:19:35;;;;;;;66.30;42.13;;;2.90;93.30;;;;;;5014758;28;20173;-93
2023/02/10 03:22:01;;;;;;;65.47;38.77;;;2.90;93.30;;;;;;5015798;28;20291;-93
2023/02/10 03:24:26;;;;;;;61.67;39.90;;;2.90;93.30;;;;;;5014733;28;20176;-91
2023/02/10 03:26:52;;;;;;;71.97;40.73;;;2.90;93.40;;;;;;5016111;28;20235;-93
2023/02/10 03:29:17;;;;;;;65.83;38.73;;;2.90;93.40;;;;;;5014964;28;20205;-93
2023/02/10 03:31:43;;;;;;;66.47;40.43;;;2.90;93.40;;;;;;5014552;28;20693;-93
2023/02/10 03:34:09;;;;;;;72.97;41.63;;;2.90;93.50;;;;;;5014920;28;20317;-90
2023/02/10 03:36:34;;;;;;;64.83;39.70;;;2.90;93.40;;;;;;5014436;28;20181;-91
2023/02/10 03:39:02;;;;;;;70.03;41.83;;;2.90;93.50;;;;;;5014403;28;20185;-93
2023/02/10 03:41:27;;;;;;;58.03;38.90;;;2.80;93.40;;;;;;5014286;28;20217;-92
2023/02/10 03:43:53;;;;;;;54.13;34.70;;;2.90;93.50;;;;;;5016111;28;20200;-92
2023/02/10 03:46:19;;;;;;;67.77;40.07;;;2.80;93.60;;;;;;5014193;28;20711;-93
2023/02/10 03:48:44;;;;;;;77.63;41.73;;;2.80;93.60;;;;;;5015294;28;20639;-93
2023/02/10 03:51:10;;;;;;;70.70;41.57;;;2.80;93.70;;;;;;5014387;28;20201;-93
2023/02/10 03:53:35;;;;;;;73.63;42.60;;;2.80;93.70;;;;;;5014138;28;20189;-93
2023/02/10 03:56:01;;;;;;;77.10;43.50;;;2.70;93.60;;;;;;5014197;28;20177;-92
2023/02/10 03:58:27;;;;;;;73.33;43.27;;;2.70;93.70;;;;;;5014104;28;20189;-93
2023/02/10 04:00:52;;;;;;;65.70;44.93;;;2.60;93.70;;;;;;5013999;28;20206;-92
2023/02/10 04:03:18;;;;;;;67.27;45.20;;;2.60;93.70;;;;;;5015137;28;20613;-91
2023/02/10 04:05:45;;;;;;;61.73;41.10;;;2.50;93.70;;;;;;5016697;28;20181;-89
2023/02/10 04:08:11;;;;;;;73.77;46.40;;;2.60;93.80;;;;;;5013972;28;20185;-91
2023/02/10 04:10:37;;;;;;;81.87;44.90;;;2.60;93.90;;;;;;5013830;28;20209;-91
2023/02/10 04:13:02;;;;;;;65.47;41.50;;;2.50;93.90;;;;;;5013935;28;20173;-90
2023/02/10 04:15:28;;;;;;;76.03;43.80;;;2.60;94.00;;;;;;5013719;28;20569;-91
2023/02/10 04:17:56;;;;;;;66.67;41.97;;;2.50;94.00;;;;;;5013713;28;20184;-91
2023/02/10 04:20:22;;;;;;;71.53;46.07;;;2.50;94.00;;;;;;5013499;28;20576;-89
2023/02/10 04:22:47;;;;;;;80.87;44.03;;;2.50;94.00;;;;;;5013607;28;20197;-91
2023/02/10 04:25:13;;;;;;;66.97;47.07;;;2.50;94.10;;;;;;5013570;28;20670;-91
2023/02/10 04:27:38;;;;;;;61.93;45.27;;;2.50;94.10;;;;;;5013614;28;20193;-89
2023/02/10 04:30:04;;;;;;;77.57;45.70;;;2.50;94.00;;;;;;5013571;28;20176;-89
2023/02/10 04:32:30;;;;;;;85.27;47.30;;;2.40;94.10;;;;;;5013502;28;20204;-90
2023/02/10 04:34:55;;;;;;;80.70;46.73;;;2.30;94.00;;;;;;5013693;28;20177;-89
2023/02/10 04:37:21;;;;;;;66.37;45.17;;;2.30;94.10;;;;;;5013487;28;20200;-90
2023/02/10 04:39:46;;;;;;;77.43;44.27;;;2.30;94.10;;;;;;5014438;28;20179;-89
2023/02/10 04:42:12;;;;;;;67.43;47.23;;;2.30;94.20;;;;;;5013349;28;20275;-89
2023/02/10 04:44:37;;;;;;;69.53;44.67;;;2.30;94.20;;;;;;5013444;28;20169;-89
2023/02/10 04:47:03;;;;;;;81.80;49.67;;;2.30;94.20;;;;;;5013526;28;20635;-90
2023/02/10 04:49:28;;;;;;;63.03;44.03;;;2.30;94.20;;;;;;5013334;28;20177;-90
2023/02/10 04:51:54;;;;;;;72.77;46.57;;;2.30;94.20;;;;;;5013535;28;20721;-92
2023/02/10 04:54:20;;;;;;;71.13;45.83;;;2.30;94.30;;;;;;5013090;28;20185;-90
2023/02/10 04:56:46;;;;;;;76.60;46.00;;;2.20;94.30;;;;;;5013005;28;20184;-90
2023/02/10 04:59:12;;;;;;;77.23;46.90;;;2.20;94.30;;;;;;5013018;28;20550;-91
2023/02/10 05:01:38;;;;;;;67.50;44.77;;;2.20;94.40;;;;;;5012578;28;20209;-90
2023/02/10 05:04:03;;;;;;;73.10;47.43;;;2.20;94.40;;;;;;5012829;28;20775;-90
2023/02/10 05:06:29;;;;;;;88.00;47.23;;;2.20;94.40;;;;;;5012953;28;20179;-91
2023/02/10 05:08:55;;;;;;;67.67;42.17;;;2.20;94.40;;;;;;5012799;28;20647;-90
2023/02/10 05:11:20;;;;;;;77.53;47.57;;;2.20;94.50;;;;;;5012620;28;20203;-89
2023/02/10 05:13:46;;;;;;;72.00;46.03;;;2.20;94.50;;;;;;5012824;28;20228;-89
2023/02/10 05:16:13;;;;;;;78.07;46.50;;;2.20;94.50;;;;;;5012925;28;20726;-91
2023/02/10 05:18:39;;;;;;;75.03;47.60;;;2.20;94.50;;;;;;5012696;28;20208;-90
2023/02/10 05:21:07;;;;;;;76.50;47.77;;;2.10;94.50;;;;;;5012447;28;20252;-91
2023/02/10 05:23:33;;;;;;;68.87;45.70;;;2.20;94.50;;;;;;5013169;28;20180;-90
2023/02/10 05:25:59;;;;;;;74.47;50.23;;;2.10;94.50;;;;;;5013667;28;20189;-90
2023/02/10 05:28:24;;;;;;;69.97;45.97;;;2.10;94.50;;;;;;5013823;28;20232;-91
2023/02/10 05:30:50;;;;;;;86.65;50.45;;;2.00;94.50;;;;;;5012297;28;20983;-89
2023/02/10 05:33:15;;;;;;;86.37;49.67;;;2.10;94.60;;;;;;5012578;28;20177;-89
2023/02/10 05:35:41;;;;;;;77.77;51.37;;;2.10;94.60;;;;;;5013909;28;20228;-90
2023/02/10 05:38:06;;;;;;;77.30;49.97;;;2.10;94.60;;;;;;5012348;28;20180;-89
2023/02/10 05:40:32;;;;;;;66.60;46.80;;;2.10;94.70;;;;;;5012327;28;20338;-93
2023/02/10 05:42:58;;;;;;;72.73;48.43;;;2.10;94.60;;;;;;5012464;28;20660;-89
2023/02/10 05:45:24;;;;;;;72.90;45.43;;;2.10;94.70;;;;;;5014717;28;20199;-90
2023/02/10 05:47:51;;;;;;;89.87;47.47;;;2.20;94.70;;;;;;5016152;28;20184;-90
2023/02/10 05:50:17;;;;;;;71.33;48.63;;;2.20;94.80;;;;;;5013011;28;20669;-92
2023/02/10 05:52:42;;;;;;;72.00;48.57;;;2.30;94.70;;;;;;5012861;28;20287;-91
2023/02/10 05:55:08;;;;;;;75.30;49.97;;;2.30;94.70;;;;;;5013537;28;20212;-90
2023/02/10 05:57:34;;;;;;;78.90;49.00;;;2.20;94.70;;;;;;5013689;28;20173;-91
2023/02/10 05:59:59;;;;;;;71.57;48.13;;;2.30;94.80;;;;;;5012338;28;20177;-89
2023/02/10 06:02:25;;;;;;;77.93;47.80;;;2.20;94.70;;;;;;5012490;28;20208;-91
2023/02/10 06:04:50;;;;;;;72.47;45.13;;;2.20;94.80;;;;;;5013114;28;20173;-91
2023/02/10 06:07:17;;;;;;;63.93;43.60;;;2.20;94.70;;;;;;5014650;28;20180;-89
2023/02/10 06:09:44;;;;;;;72.57;46.43;;;2.10;94.80;;;;;;5013620;28;20174;-91
2023/02/10 06:12:09;;;;;;;80.23;49.40;;;2.20;94.80;;;;;;5012416;28;20585;-90
2023/02/10 06:14:37;;;;;;;62.40;45.50;;;2.10;94.80;;;;;;5014589;28;20185;-88
2023/02/10 06:17:08;;;;;;;84.20;50.97;;;2.20;94.80;;;;;;5017390;28;20184;-90
2023/02/10 06:19:37;;;;;;;76.63;50.57;;;2.20;94.90;;;;;;5016128;28;20177;-90
2023/02/10 06:22:03;;;;;;;88.53;52.40;;;2.20;94.90;;;;;;5016623;28;20295;-90
2023/02/10 06:24:29;;;;;;;69.33;48.83;;;2.30;94.90;;;;;;5017994;28;20178;-88
2023/02/10 06:26:55;;;;;;;84.43;50.43;;;2.30;94.90;;;;;;5016548;28;20704;-90
2023/02/10 06:29:21;;;;;;;92.20;50.93;;;2.30;94.90;;;;;;5016207;28;20192;-91
2023/02/10 06:31:46;;;;;;;88.93;54.20;;;2.30;94.90;;;;;;5025796;28;20201;-92
2023/02/10 06:34:12;;;;;;;80.63;49.33;;;2.30;94.90;;;;;;5028380;28;20187;-93
2023/02/10 06:36:38;;;;;;;83.97;54.33;;;2.30;94.90;;;;;;5025968;28;20211;-94
2023/02/10 06:39:03;;;;;;;90.33;53.47;;;2.30;94.90;;;;;;5026387;28;20183;-92
2023/02/10 06:41:29;;;;;;;78.90;48.40;;;2.30;94.90;;;;;;5024853;28;20408;-91
2023/02/10 06:43:54;;;;;;;84.50;53.93;;;2.30;94.90;;;;;;5027046;28;20261;-92
2023/02/10 06:46:20;;;;;;;86.47;52.90;;;2.30;94.90;;;;;;5026184;28;20567;-91
2023/02/10 06:48:45;;;;;;;81.07;50.80;;;2.30;94.90;;;;;;5026763;28;20176;-93
2023/02/10 06:51:11;;;;;;;84.97;53.97;;;2.30;94.90;;;;;;5025347;28;20198;-92
2023/02/10 06:53:37;;;;;;;73.67;51.47;;;2.30;94.90;;;;;;5024892;28;20237;-93
2023/02/10 06:56:02;;;;;;;73.40;48.43;;;2.30;94.90;;;;;;5025007;28;20184;-93
2023/02/10 06:58:28;;;;;;;74.87;53.70;;;2.30;94.90;;;;;;5025637;28;20173;-92
2023/02/10 07:00:53;;;;;;;77.90;52.50;;;2.30;94.90;;;;;;5025251;28;20209;-91
2023/02/10 07:03:19;;;;;;;88.77;53.47;;;2.30;94.90;;;;;;5024634;28;20211;-92
2023/02/10 07:05:45;;;;;;;72.37;49.13;;;2.30;94.90;;;;;;5025479;28;20187;-92
2023/02/10 07:08:10;;;;;;;68.93;51.00;;;2.30;94.90;;;;;;5024280;28;20181;-92
2023/02/10 07:10:36;;;;;;;75.50;49.73;;;2.30;94.90;;;;;;5024850;28;20178;-90
2023/02/10 07:13:01;;;;;;;76.13;51.93;;;2.40;94.90;;;;;;5022273;28;20187;-92
2023/02/10 07:15:27;;;;;;;68.23;50.03;;;2.40;94.90;;;;;;5022713;28;20185;-92
2023/02/10 07:17:52;;;;;;;77.73;52.57;;;2.40;94.90;;;;;;5024096;28;20185;-92
2023/02/10 07:20:19;;;;;;;61.70;49.47;;;2.50;94.90;;;;;;5024653;28;20189;-92
2023/02/10 07:22:45;;;;;;;74.80;51.27;;;2.40;94.80;;;;;;5024547;28;20190;-91
2023/02/10 07:25:10;;;;;;;78.93;51.27;;;2.40;94.90;;;;;;5024400;28;20552;-92
2023/02/10 07:27:36;;;;;;;85.00;50.63;;;2.40;94.90;;;;;;5025910;28;20659;-92
2023/02/10 07:30:01;;;;;;;85.20;54.47;;;2.40;94.90;;;;;;5021446;28;20248;-93
2023/02/10 07:32:27;;;;;;;78.27;54.30;;;2.50;94.90;;;;;;5021448;28;20213;-92
2023/02/10 07:34:52;;;;;;;78.93;54.27;;;2.50;94.90;;;;;;5023436;28;20169;-92
2023/02/10 07:37:18;;;;;;;83.63;56.27;;;2.50;94.90;;;;;;5022399;28;20265;-92
2023/02/10 07:39:43;;;;;;;74.20;50.73;;;2.60;94.90;;;;;;5023149;28;20181;-92
2023/02/10 07:42:09;;;;;;;82.83;56.70;;;2.60;94.80;;;;;;5024877;28;20232;-90
2023/02/10 07:44:34;;;;;;;80.77;56.83;;;2.60;94.90;;;;;;5023561;28;20180;-90
2023/02/10 07:47:00;;;;;;;77.30;54.63;;;2.60;94.90;;;;;;5025093;28;20170;-92
2023/02/10 07:49:28;;;;;;;67.30;51.77;;;2.60;94.80;;;;;;5024017;28;20192;-92
2023/02/10 07:51:54;;;;;;;87.20;53.80;;;2.60;94.80;;;;;;5027781;28;20200;-92
2023/02/10 07:54:20;;;;;;;69.43;54.17;;;2.60;94.90;;;;;;5024341;28;20184;-92
2023/02/10 07:56:46;;;;;;;83.93;56.27;;;2.60;94.90;;;;;;5021748;28;20561;-92
2023/02/10 07:59:11;;;;;;;77.33;54.77;;;2.70;94.90;;;;;;5024082;28;20648;-91
2023/02/10 08:01:41;;;;;;;84.70;52.73;;;2.70;94.90;;;;;;5023861;28;20213;-92
2023/02/10 08:04:07;;;;;;;79.97;53.80;;;2.70;94.80;;;;;;5022962;28;20184;-93
2023/02/10 08:06:33;;;;;;;76.83;53.07;;;2.70;94.80;;;;;;5022259;28;20178;-91
2023/02/10 08:08:58;;;;;;;83.47;53.03;;;2.80;94.80;;;;;;5024471;28;20185;-92
2023/02/10 08:11:24;;;;;;;84.83;56.57;;;2.80;94.90;;;;;;5024392;28;20205;-90
2023/02/10 08:13:49;;;;;;;73.17;53.63;;;2.80;94.80;;;;;;5024850;28;20552;-92
2023/02/10 08:16:15;;;;;;;76.40;53.00;;;2.80;94.80;;;;;;5025612;28;20216;-90
2023/02/10 08:18:41;;;;;;;74.50;55.57;;;2.80;94.80;;;;;;5026076;28;20192;-92
2023/02/10 08:21:07;;;;;;;68.90;50.43;;;2.90;94.80;;;;;;5023445;28;20213;-93
2023/02/10 08:23:34;;;;;;;82.10;54.37;;;2.90;94.80;;;;;;5023461;28;20228;-91
2023/02/10 08:26:05;;;;;;;73.33;51.70;;;2.80;94.70;;;;;;5023583;28;20201;-91
2023/02/10 08:28:31;;;;;;;79.17;56.27;;;2.90;94.80;;;;;;5025126;28;20228;-90
2023/02/10 08:31:00;;;;;;;83.90;56.30;;;2.90;94.80;;;;;;5025506;28;20262;-91
2023/02/10 08:33:25;;;;;;;83.40;52.43;;;3.00;94.80;;;;;;5025887;28;20249;-92
2023/02/10 08:35:51;;;;;;;68.23;52.77;;;3.00;94.70;;;;;;5026346;28;20574;-91
2023/02/10 08:38:16;;;;;;;85.23;56.10;;;3.00;94.70;;;;;;5024422;28;20275;-90
2023/02/10 08:40:42;;;;;;;58.00;47.37;;;3.00;94.60;;;;;;5023544;28;20228;-92
2023/02/10 08:43:07;;;;;;;63.93;45.37;;;3.00;94.60;;;;;;5023193;28;20279;-90
2023/02/10 08:45:33;;;;;;;79.27;53.50;;;3.00;94.50;;;;;;5021771;28;20600;-92
2023/02/10 08:48:00;;;;;;;85.70;56.40;;;3.10;94.60;;;;;;5021338;28;20178;-91
2023/02/10 08:50:26;;;;;;;81.97;54.77;;;3.10;94.60;;;;;;5025377;28;20174;-91
2023/02/10 08:52:52;;;;;;;63.93;45.67;;;3.10;94.50;;;;;;5023296;28;20177;-91
2023/02/10 08:55:17;;;;;;;74.93;45.47;;;3.00;94.40;;;;;;5024071;28;20180;-91
2023/02/10 08:57:43;;;;;;;90.87;55.10;;;3.00;94.40;;;;;;5023827;28;20209;-92
2023/02/10 09:00:10;;;;;;;80.83;55.97;;;3.00;94.40;;;;;;5014766;28;20639;-92
2023/02/10 09:02:35;;;;;;;84.47;56.50;;;3.10;94.30;;;;;;5015444;28;20228;-87
2023/02/10 09:05:01;;;;;;;61.13;49.53;;;3.10;94.30;;;;;;5014176;28;20173;-89
2023/02/10 09:07:27;;;;;;;83.00;55.27;;;3.10;94.30;;;;;;5014247;28;20204;-89
2023/02/10 09:09:52;;;;;;;69.73;48.27;;;3.10;94.20;;;;;;5013477;28;20268;-89
2023/02/10 09:12:18;;;;;;;87.97;52.30;;;3.20;94.20;;;;;;5013451;28;20193;-89
2023/02/10 09:14:44;;;;;;;78.00;50.67;;;3.30;94.20;;;;;;5014456;28;20243;-89
2023/02/10 09:17:10;;;;;;;74.20;49.17;;;3.30;94.10;;;;;;5014563;28;20181;-87
2023/02/10 09:19:36;;;;;;;78.73;49.63;;;3.30;94.00;;;;;;5014327;28;20173;-88
2023/02/10 09:22:03;;;;;;;77.80;47.63;;;3.30;93.90;;;;;;5014879;28;20217;-88
2023/02/10 09:24:29;;;;;;;64.67;47.27;;;3.30;93.80;;;;;;5015267;28;20170;-89
2023/02/10 09:26:54;;;;;;;76.23;49.90;;;3.30;93.80;;;;;;5014990;28;20579;-89
2023/02/10 09:29:20;;;;;;;66.63;48.33;;;3.30;93.70;;;;;;5013885;28;20180;-87
2023/02/10 09:31:45;;;;;;;77.60;51.90;;;3.40;93.70;;;;;;5014031;28;20190;-87
2023/02/10 09:34:11;;;;;;;69.37;50.67;;;3.40;93.60;;;;;;5016340;28;20519;-88
2023/02/10 09:36:36;;;;;;;68.70;47.60;;;3.50;93.60;;;;;;5014555;28;20181;-87
2023/02/10 09:39:02;;;;;;;76.60;51.90;;;3.50;93.50;;;;;;5014317;28;20181;-90
2023/02/10 09:41:28;;;;;;;71.70;53.73;;;3.50;93.50;;;;;;5012943;28;20205;-89
2023/02/10 09:44:12;;;;;;;74.27;49.17;;;3.60;93.50;;;;;;5013479;28;20169;-89
2023/02/10 09:47:15;;;;;;;77.30;50.13;;;3.50;93.30;;;;;;5014206;28;20235;-90
2023/02/10 09:49:44;;;;;;;66.57;46.27;;;3.50;93.30;;;;;;5013932;28;20176;-88
2023/02/10 09:52:15;;;;;;;82.07;48.20;;;3.50;93.30;;;;;;5012980;28;20205;-89
2023/02/10 09:54:42;;;;;;;67.13;49.10;;;3.60;93.30;;;;;;5013136;28;20178;-89
2023/02/10 09:57:36;;;;;;;68.27;47.63;;;3.70;93.30;;;;;;5013099;28;20181;-89
2023/02/10 10:00:11;;;;;;;78.20;48.20;;;3.70;93.30;;;;;;5006070;28;20256;-88
2023/02/10 10:02:46;;;;;;;76.77;49.77;;;3.80;93.30;;;;;;5014703;28;20296;-89
2023/02/10 10:05:38;;;;;;;71.40;41.20;;;3.80;93.20;;;;;;5016009;28;20177;-88
2023/02/10 10:08:12;;;;;;;68.30;45.83;;;3.80;93.10;;;;;;4980434;28;20569;-90
2023/02/10 10:10:45;;;;;;;64.97;48.93;;;3.90;93.10;;;;;;5013260;28;20550;-87
2023/02/10 10:13:16;;;;;;;66.80;47.57;;;3.90;93.10;;;;;;5015699;28;20702;-89
2023/02/10 10:15:49;;;;;;;73.37;49.10;;;4.00;93.10;;;;;;5014729;28;20178;-88
2023/02/10 10:18:33;;;;;;;71.20;48.50;;;4.00;92.90;;;;;;5013778;28;20319;-90
2023/02/10 10:21:15;;;;;;;68.43;48.83;;;4.10;93.00;;;;;;5012539;28;20217;-89
2023/02/10 10:24:13;;;;;;;61.80;47.33;;;4.20;93.00;;;;;;5012481;28;20250;-89
2023/02/10 10:27:00;;;;;;;70.13;44.90;;;4.20;92.90;;;;;;5013872;28;20223;-90
2023/02/10 10:29:57;;;;;;;59.30;44.50;;;4.20;92.70;;;;;;5012417;28;20167;-89
2023/02/10 10:32:32;;;;;;;56.50;42.20;;;4.30;92.60;;;;;;5009863;28;20268;-89
2023/02/10 10:34:59;;;;;;;74.47;46.43;;;4.30;92.60;;;;;;5012410;28;20171;-88
2023/02/10 10:37:25;;;;;;;63.80;41.97;;;4.40;92.50;;;;;;5012895;28;20271;-89
2023/02/10 10:39:56;;;;;;;70.90;45.97;;;4.40;92.40;;;;;;5013866;28;20268;-89
2023/02/10 10:42:41;;;;;;;68.70;44.03;;;4.50;92.40;;;;;;5012322;28;20218;-89
2023/02/10 10:45:24;;;;;;;78.07;45.40;;;4.50;92.30;;;;;;5012572;28;20230;-89
2023/02/10 10:48:15;;;;;;;59.70;43.30;;;4.60;92.30;;;;;;5012927;28;20216;-89
2023/02/10 10:50:41;;;;;;;60.10;43.00;;;4.70;92.40;;;;;;5014628;28;20175;-89
2023/02/10 10:53:18;;;;;;;69.37;45.83;;;4.80;92.20;;;;;;5013053;28;20257;-88
2023/02/10 10:55:48;;;;;;;67.80;44.90;;;4.90;92.10;;;;;;5013455;28;20172;-89
2023/02/10 10:58:35;;;;;;;64.80;40.97;;;4.90;91.90;;;;;;5014039;28;20160;-90
2023/02/10 11:01:02;;;;;;;65.00;38.80;;;5.00;91.80;;;;;;5015930;28;20285;-89
2023/02/10 11:03:28;;;;;;;60.50;38.53;;;5.20;91.70;;;;;;5016538;28;20595;-89
2023/02/10 11:06:02;;;;;;;70.50;38.53;;;5.30;91.50;;;;;;5016060;28;20219;-90
2023/02/10 11:08:45;;;;;;;56.30;38.97;;;5.30;91.30;;;;;;5017413;28;20608;-88
2023/02/10 11:11:14;;;;;;;63.33;35.90;;;5.30;91.20;;;;;;5016400;28;20303;-89
2023/02/10 11:13:50;;;;;;;49.87;35.90;;;5.30;90.90;;;;;;5016151;28;20192;-89
2023/02/10 11:16:16;;;;;;;54.47;34.27;;;5.40;91.00;;;;;;5015763;28;20179;-91
2023/02/10 11:18:56;;;;;;;49.03;32.50;;;5.40;90.80;;;;;;5015820;28;20184;-90
2023/02/10 11:21:36;;;;;;;40.10;30.47;;;5.50;90.70;;;;;;5015612;28;20208;-89
2023/02/10 11:24:02;;;;;;;38.67;28.50;;;5.60;90.10;;;;;;5015532;28;20176;-90
2023/02/10 11:26:28;;;;;;;40.17;29.30;;;5.70;89.80;;;;;;5016748;28;20192;-89
2023/02/10 11:28:54;;;;;;;43.17;31.17;;;5.90;89.60;;;;;;5016510;28;20179;-90
2023/02/10 11:31:34;;;;;;;47.97;30.37;;;6.10;89.50;;;;;;5017416;28;20211;-89
2023/02/10 11:34:40;;;;;;;48.77;29.87;;;6.10;89.30;;;;;;5015345;28;20188;-90
2023/02/10 11:37:19;;;;;;;37.77;25.40;;;6.30;89.40;;;;;;5006176;28;20197;-89
2023/02/10 11:39:45;;;;;;;45.87;27.63;;;6.30;88.30;;;;;;5015462;28;20654;-90
2023/02/10 11:42:27;;;;;;;39.67;26.97;;;6.40;88.10;;;;;;5014827;28;20245;-88
2023/02/10 11:45:17;;;;;;;46.87;25.83;;;6.60;88.20;;;;;;5016563;28;20169;-88
2023/02/10 11:47:44;;;;;;;43.73;24.37;;;6.60;87.70;;;;;;5005291;28;20608;-89
2023/02/10 11:50:29;;;;;;;33.43;23.77;;;6.80;87.60;;;;;;5015258;28;20177;-89
2023/02/10 11:52:55;;;;;;;32.77;22.03;;;6.90;86.80;;;;;;5014913;28;20166;-89
2023/02/10 11:55:27;;;;;;;31.53;22.00;;;7.00;86.50;;;;;;5014437;28;20530;-89
2023/02/10 12:01:39;;;;;;;34.63;20.90;;;7.00;86.00;;;;;;5016543;28;20264;-88
2023/02/10 12:04:22;;;;;;;26.57;18.13;;;7.00;85.40;;;;;;5014923;28;20169;-88
2023/02/10 12:07:11;;;;;;;32.57;18.50;;;7.10;85.50;;;;;;5016000;28;20216;-89
2023/02/10 12:09:57;;;;;;;25.63;19.27;;;7.10;84.20;;;;;;5014655;28;20194;-89
2023/02/10 12:12:33;;;;;;;24.57;17.87;;;7.10;84.20;;;;;;5014653;28;20259;-89
2023/02/10 12:15:25;;;;;;;28.23;16.97;;;7.10;84.50;;;;;;5015788;28;20615;-90
2023/02/10 12:18:18;;;;;;;29.80;19.33;;;7.20;83.50;;;;;;4967107;28;20186;-89
2023/02/10 12:21:29;;;;;;;23.37;17.40;;;7.30;83.00;;;;;;5016533;28;20193;-88
2023/02/10 12:24:14;;;;;;;23.27;17.37;;;7.20;83.50;;;;;;4991649;28;20185;-89
2023/02/10 12:26:49;;;;;;;24.67;18.00;;;7.10;83.40;;;;;;5014259;28;20689;-88
2023/02/10 12:29:29;;;;;;;30.07;18.57;;;7.00;83.10;;;;;;5014193;28;20161;-89
2023/02/10 12:32:17;;;;;;;27.53;18.07;;;7.20;83.30;;;;;;5015192;28;20576;-89
2023/02/10 12:35:07;;;;;;;28.60;18.70;;;7.10;82.90;;;;;;5015253;28;20170;-88
2023/02/10 12:37:57;;;;;;;24.40;17.63;;;7.10;83.40;;;;;;5013438;28;20643;-89
2023/02/10 12:40:57;;;;;;;29.63;18.83;;;7.10;82.80;;;;;;5013621;28;20172;-89
2023/02/10 12:43:31;;;;;;;29.43;18.53;;;7.10;83.00;;;;;;5014193;28;20197;-89
2023/02/10 12:46:33;;;;;;;37.10;18.70;;;7.20;82.90;;;;;;5014447;28;20161;-89
2023/02/10 12:49:14;;;;;;;22.17;17.20;;;7.20;82.50;;;;;;5014984;28;20165;-89
2023/02/10 12:52:03;;;;;;;22.90;16.67;;;7.10;82.30;;;;;;5014065;28;20770;-90
2023/02/10 12:54:36;;;;;;;25.67;17.60;;;7.20;83.10;;;;;;5013988;28;20292;-90